createdAt,value
2018-03-30T00:01:53.935Z,77.41
2018-03-30T00:04:21.561Z,77.05
2018-03-30T00:06:49.179Z,77.53
2018-03-30T00:09:28.466Z,77.39
2018-03-30T00:11:56.068Z,77.32
2018-03-30T00:14:23.665Z,76.93
2018-03-30T00:16:51.282Z,77.17
2018-03-30T00:19:18.867Z,77.10
2018-03-30T00:21:46.616Z,76.66
2018-03-30T00:24:14.229Z,76.87
2018-03-30T00:26:41.903Z,76.90
2018-03-30T00:29:09.603Z,76.95
2018-03-30T00:31:37.222Z,77.23
2018-03-30T00:34:11.375Z,77.18
2018-03-30T00:36:39.064Z,76.75
2018-03-30T00:39:06.648Z,76.90
2018-03-30T00:41:34.270Z,76.88
2018-03-30T00:44:01.923Z,76.76
2018-03-30T00:46:29.623Z,76.84
2018-03-30T00:48:57.209Z,77.09
2018-03-30T00:51:25.022Z,77.12
2018-03-30T00:53:52.654Z,76.98
2018-03-30T00:56:20.304Z,77.31
2018-03-30T00:58:47.896Z,77.41
2018-03-30T01:01:15.485Z,77.66
2018-03-30T01:03:43.258Z,77.69
2018-03-30T01:06:10.895Z,77.83
2018-03-30T01:08:38.529Z,77.44
2018-03-30T01:11:09.865Z,77.39
2018-03-30T01:13:37.555Z,77.63
2018-03-30T01:16:05.278Z,77.60
2018-03-30T01:18:32.918Z,77.72
2018-03-30T01:21:00.577Z,77.54
2018-03-30T01:23:28.288Z,77.19
2018-03-30T01:25:55.892Z,77.04
2018-03-30T01:28:23.585Z,77.30
2018-03-30T01:30:51.150Z,77.33
2018-03-30T01:33:18.778Z,77.61
2018-03-30T01:35:46.405Z,78.05
2018-03-30T01:38:14.023Z,78.08
2018-03-30T01:40:41.604Z,78.22
2018-03-30T01:43:09.215Z,78.32
2018-03-30T01:45:36.809Z,78.55
2018-03-30T01:48:04.441Z,78.82
2018-03-30T01:50:32.021Z,78.59
2018-03-30T01:52:59.687Z,78.63
2018-03-30T01:55:27.369Z,78.46
2018-03-30T01:57:54.934Z,78.15
2018-03-30T02:00:22.566Z,78.24
2018-03-30T02:02:50.159Z,78.05
2018-03-30T02:05:17.858Z,78.02
2018-03-30T02:07:45.520Z,78.45
2018-03-30T02:10:13.232Z,78.22
2018-03-30T02:12:40.830Z,78.37
2018-03-30T02:15:08.466Z,78.42
2018-03-30T02:17:36.070Z,78.29
2018-03-30T02:20:03.711Z,78.35
2018-03-30T02:22:31.278Z,78.46
2018-03-30T02:24:58.897Z,78.25
2018-03-30T02:27:26.555Z,77.99
2018-03-30T02:29:54.181Z,78.19
2018-03-30T02:32:21.765Z,78.00
2018-03-30T02:34:49.396Z,78.00
2018-03-30T02:37:17.311Z,77.78
2018-03-30T02:39:44.958Z,77.81
2018-03-30T02:42:12.501Z,77.83
2018-03-30T02:44:40.151Z,77.97
2018-03-30T02:47:07.746Z,77.95
2018-03-30T02:49:35.455Z,77.74
2018-03-30T02:52:03.092Z,77.66
2018-03-30T02:54:30.686Z,77.49
2018-03-30T02:56:58.317Z,77.44
2018-03-30T02:59:26.163Z,77.39
2018-03-30T03:01:53.794Z,77.09
2018-03-30T03:04:21.431Z,77.07
2018-03-30T03:06:49.042Z,77.05
2018-03-30T03:09:16.657Z,77.43
2018-03-30T03:11:44.439Z,77.13
2018-03-30T03:14:12.019Z,77.05
2018-03-30T03:16:39.817Z,77.25
2018-03-30T03:19:07.563Z,77.15
2018-03-30T03:21:35.180Z,77.23
2018-03-30T03:24:02.869Z,77.41
2018-03-30T03:26:30.497Z,77.19
2018-03-30T03:28:58.107Z,77.17
2018-03-30T03:31:25.722Z,77.26
2018-03-30T03:33:53.332Z,77.21
2018-03-30T03:36:20.950Z,77.19
2018-03-30T03:38:48.551Z,77.25
2018-03-30T03:41:16.582Z,77.42
2018-03-30T03:43:44.153Z,76.97
2018-03-30T03:46:11.738Z,77.08
2018-03-30T03:48:39.358Z,77.06
2018-03-30T03:51:06.968Z,77.32
2018-03-30T03:53:34.584Z,77.30
2018-03-30T03:56:02.251Z,76.94
2018-03-30T03:58:29.895Z,77.25
2018-03-30T04:00:57.494Z,77.44
2018-03-30T04:03:25.114Z,77.56
2018-03-30T04:05:52.709Z,77.49
2018-03-30T04:08:20.426Z,77.65
2018-03-30T04:10:48.016Z,77.28
2018-03-30T04:13:15.643Z,77.40
2018-03-30T04:15:43.246Z,77.67
2018-03-30T04:18:10.873Z,77.62
2018-03-30T04:20:38.483Z,77.65
2018-03-30T04:23:06.107Z,77.91
2018-03-30T04:25:33.687Z,77.77
2018-03-30T04:28:01.321Z,77.82
2018-03-30T04:30:28.921Z,77.69
2018-03-30T04:32:56.568Z,77.98
2018-03-30T04:35:24.152Z,78.11
2018-03-30T04:37:51.814Z,77.66
2018-03-30T04:40:19.437Z,77.74
2018-03-30T04:42:47.024Z,77.77
2018-03-30T04:45:14.656Z,77.91
2018-03-30T04:47:42.355Z,77.82
2018-03-30T04:50:10.002Z,77.84
2018-03-30T04:52:37.620Z,78.08
2018-03-30T04:55:05.261Z,78.18
2018-03-30T04:57:32.845Z,78.33
2018-03-30T05:00:00.495Z,78.64
2018-03-30T05:02:28.079Z,78.73
2018-03-30T05:04:55.832Z,78.74
2018-03-30T05:07:23.426Z,78.66
2018-03-30T05:09:51.044Z,78.60
2018-03-30T05:12:18.616Z,78.69
2018-03-30T05:14:46.244Z,78.29
2018-03-30T05:17:13.849Z,78.21
2018-03-30T05:19:41.460Z,78.18
2018-03-30T05:22:09.071Z,78.30
2018-03-30T05:24:36.709Z,77.92
2018-03-30T05:27:04.291Z,78.37
2018-03-30T05:29:31.881Z,78.31
2018-03-30T05:31:59.539Z,78.42
2018-03-30T05:34:27.160Z,78.64
2018-03-30T05:36:54.893Z,79.37
2018-03-30T05:39:22.486Z,80.06
2018-03-30T05:41:50.122Z,80.65
2018-03-30T05:44:17.706Z,81.26
2018-03-30T05:46:45.309Z,80.98
2018-03-30T05:49:12.889Z,80.42
2018-03-30T05:51:40.553Z,79.71
2018-03-30T05:54:08.123Z,79.06
2018-03-30T05:56:35.746Z,78.50
2018-03-30T05:59:03.342Z,78.47
2018-03-30T06:01:31.011Z,78.85
2018-03-30T06:03:58.594Z,79.02
2018-03-30T06:06:26.220Z,78.76
2018-03-30T06:08:53.822Z,78.39
2018-03-30T06:11:21.467Z,78.79
2018-03-30T06:13:49.082Z,78.44
2018-03-30T06:16:16.746Z,78.20
2018-03-30T06:18:44.444Z,78.05
2018-03-30T06:21:12.091Z,77.49
2018-03-30T06:23:39.700Z,77.63
2018-03-30T06:26:07.315Z,77.26
2018-03-30T06:28:34.931Z,77.27
2018-03-30T06:31:02.624Z,77.53
2018-03-30T06:33:30.254Z,77.17
2018-03-30T06:35:57.838Z,77.36
2018-03-30T06:38:25.466Z,76.56
2018-03-30T06:40:53.059Z,76.50
2018-03-30T06:43:20.674Z,76.78
2018-03-30T06:45:48.418Z,76.18
2018-03-30T06:48:16.113Z,76.39
2018-03-30T06:50:43.802Z,76.44
2018-03-30T06:53:11.447Z,76.10
2018-03-30T06:55:39.062Z,76.08
2018-03-30T06:58:06.686Z,75.54
2018-03-30T07:00:34.251Z,75.47
2018-03-30T07:03:01.872Z,75.23
2018-03-30T07:05:29.459Z,74.92
2018-03-30T07:07:57.095Z,75.35
2018-03-30T07:10:24.791Z,75.34
2018-03-30T07:12:52.421Z,74.03
2018-03-30T07:15:20.061Z,73.71
2018-03-30T07:17:47.648Z,74.21
2018-03-30T07:20:15.263Z,74.08
2018-03-30T07:22:42.996Z,74.31
2018-03-30T07:25:10.622Z,74.13
2018-03-30T07:27:38.287Z,74.29
2018-03-30T07:30:05.945Z,72.98
2018-03-30T07:32:33.570Z,73.09
2018-03-30T07:35:01.225Z,72.72
2018-03-30T07:37:28.827Z,71.67
2018-03-30T07:39:56.440Z,72.14
2018-03-30T07:42:24.358Z,71.86
2018-03-30T07:44:52.022Z,72.10
2018-03-30T07:47:19.614Z,70.85
2018-03-30T07:49:47.230Z,71.27
2018-03-30T07:52:14.825Z,70.98
2018-03-30T07:54:42.478Z,71.47
2018-03-30T07:57:10.071Z,70.51
2018-03-30T07:59:37.702Z,70.26
2018-03-30T08:02:05.334Z,69.61
2018-03-30T08:04:33.010Z,69.49
2018-03-30T08:07:00.612Z,69.56
2018-03-30T08:09:28.243Z,68.93
2018-03-30T08:11:55.883Z,69.62
2018-03-30T08:14:23.490Z,69.30
2018-03-30T08:16:51.147Z,69.41
2018-03-30T08:19:18.751Z,68.92
2018-03-30T08:21:46.414Z,67.99
2018-03-30T08:24:14.022Z,67.59
2018-03-30T08:26:41.658Z,66.92
2018-03-30T08:29:09.259Z,67.19
2018-03-30T08:31:36.884Z,67.24
2018-03-30T08:34:04.479Z,66.02
2018-03-30T08:36:32.096Z,67.20
2018-03-30T08:38:59.703Z,66.14
2018-03-30T08:41:27.327Z,65.95
2018-03-30T08:43:54.962Z,65.89
2018-03-30T08:46:22.627Z,65.01
2018-03-30T08:48:50.278Z,65.25
2018-03-30T08:51:17.960Z,65.15
2018-03-30T08:53:45.634Z,64.20
2018-03-30T08:56:13.283Z,63.13
2018-03-30T08:58:40.958Z,63.64
2018-03-30T09:01:08.697Z,64.65
2018-03-30T09:03:36.343Z,64.01
2018-03-30T09:06:03.952Z,62.38
2018-03-30T09:08:31.768Z,62.55
2018-03-30T09:10:59.372Z,62.02
2018-03-30T09:13:27.003Z,62.29
2018-03-30T09:15:54.608Z,63.21
2018-03-30T09:18:22.408Z,62.04
2018-03-30T09:20:49.999Z,61.89
2018-03-30T09:23:17.629Z,62.00
2018-03-30T09:25:45.221Z,62.29
2018-03-30T09:28:12.860Z,61.54
2018-03-30T09:30:40.482Z,60.19
2018-03-30T09:46:46.181Z,58.80
2018-03-30T09:49:13.802Z,59.51
2018-03-30T09:51:41.393Z,58.96
2018-03-30T09:54:09.063Z,58.47
2018-03-30T09:56:36.670Z,57.27
2018-03-30T09:59:04.298Z,57.58
2018-03-30T10:01:32.213Z,58.91
2018-03-30T10:03:59.858Z,58.57
2018-03-30T10:06:27.575Z,58.42
2018-03-30T10:08:55.203Z,56.32
2018-03-30T10:11:22.907Z,56.77
2018-03-30T10:13:50.566Z,56.14
2018-03-30T10:16:18.158Z,55.26
2018-03-30T10:18:45.787Z,53.23
2018-03-30T10:21:13.398Z,53.77
2018-03-30T10:23:41.056Z,54.63
2018-03-30T10:26:08.671Z,52.04
2018-03-30T10:28:36.270Z,50.07
2018-03-30T10:31:03.902Z,48.71
2018-03-30T10:33:31.530Z,49.15
2018-03-30T10:35:59.193Z,46.33
2018-03-30T10:38:26.774Z,47.40
2018-03-30T10:40:54.411Z,46.74
2018-03-30T10:43:22.024Z,47.01
2018-03-30T10:45:49.658Z,47.71
2018-03-30T10:48:17.291Z,47.01
2018-03-30T10:50:45.030Z,45.91
2018-03-30T10:53:12.645Z,45.93
2018-03-30T10:55:40.279Z,45.64
2018-03-30T10:58:07.959Z,45.51
2018-03-30T11:00:35.586Z,45.34
2018-03-30T11:03:03.178Z,45.48
2018-03-30T11:05:30.829Z,45.30
2018-03-30T11:07:58.418Z,44.43
2018-03-30T11:10:26.067Z,43.91
2018-03-30T11:12:53.650Z,46.07
2018-03-30T11:15:21.304Z,42.31
2018-03-30T11:17:48.896Z,42.26
2018-03-30T11:20:16.527Z,43.23
2018-03-30T11:22:44.119Z,43.23
2018-03-30T11:25:11.766Z,43.77
2018-03-30T11:27:39.375Z,42.88
2018-03-30T11:30:07.044Z,41.32
2018-03-30T11:32:34.689Z,39.88
2018-03-30T11:35:02.275Z,40.16
2018-03-30T11:37:29.913Z,39.84
2018-03-30T11:39:57.504Z,39.47
2018-03-30T11:42:25.192Z,39.33
2018-03-30T11:44:52.802Z,41.80
2018-03-30T11:47:20.443Z,38.17
2018-03-30T11:49:48.044Z,36.91
2018-03-30T11:52:15.676Z,37.87
2018-03-30T11:54:43.292Z,38.72
2018-03-30T11:57:10.911Z,38.63
2018-03-30T11:59:38.510Z,39.39
2018-03-30T12:02:06.257Z,38.77
2018-03-30T12:04:33.871Z,39.77
2018-03-30T12:07:01.589Z,39.87
2018-03-30T12:09:29.182Z,39.87
2018-03-30T12:11:56.813Z,40.27
2018-03-30T12:14:24.405Z,41.28
2018-03-30T12:16:51.976Z,41.88
2018-03-30T12:19:19.648Z,42.54
2018-03-30T12:21:47.276Z,41.70
2018-03-30T12:24:14.980Z,41.76
2018-03-30T12:26:42.558Z,43.04
2018-03-30T12:29:10.182Z,42.82
2018-03-30T12:31:37.780Z,42.30
2018-03-30T12:34:05.430Z,43.80
2018-03-30T12:36:33.067Z,43.35
2018-03-30T12:39:00.706Z,43.56
2018-03-30T12:41:28.306Z,44.20
2018-03-30T12:43:55.930Z,45.27
2018-03-30T12:46:23.597Z,43.86
2018-03-30T12:48:51.233Z,43.53
2018-03-30T12:51:18.899Z,43.40
2018-03-30T12:53:46.538Z,43.46
2018-03-30T12:56:14.146Z,43.44
2018-03-30T12:58:41.814Z,42.61
2018-03-30T13:01:09.431Z,43.95
2018-03-30T13:03:37.049Z,43.20
2018-03-30T13:06:04.654Z,44.11
2018-03-30T13:08:32.303Z,41.72
2018-03-30T13:11:00.502Z,42.08
2018-03-30T13:13:28.121Z,42.42
2018-03-30T13:15:55.762Z,42.23
2018-03-30T13:18:23.378Z,42.58
2018-03-30T13:20:51.342Z,42.52
2018-03-30T13:23:18.978Z,43.30
2018-03-30T13:25:46.681Z,43.17
2018-03-30T13:28:14.277Z,43.00
2018-03-30T13:30:42.258Z,44.25
2018-03-30T13:33:09.974Z,43.73
2018-03-30T13:35:37.601Z,42.92
2018-03-30T13:38:05.195Z,43.38
2018-03-30T13:40:32.810Z,44.68
2018-03-30T13:43:00.499Z,43.13
2018-03-30T13:45:28.137Z,42.74
2018-03-30T13:47:55.747Z,43.57
2018-03-30T13:53:20.551Z,43.50
2018-03-30T13:55:49.818Z,43.91
2018-03-30T13:58:21.139Z,44.08
2018-03-30T14:00:54.034Z,43.46
2018-03-30T14:06:45.138Z,43.85
2018-03-30T14:09:16.609Z,43.49
2018-03-30T14:11:48.767Z,44.28
2018-03-30T14:14:16.493Z,43.62
2018-03-30T14:16:48.917Z,43.73
2018-03-30T14:19:22.812Z,44.37
2018-03-30T14:21:58.871Z,44.11
2018-03-30T14:24:32.196Z,45.61
2018-03-30T14:27:14.682Z,45.15
2018-03-30T14:29:56.002Z,45.01
2018-03-30T14:32:25.365Z,44.81
2018-03-30T14:35:09.680Z,45.65
2018-03-30T14:37:37.307Z,45.67
2018-03-30T14:40:11.332Z,46.05
2018-03-30T14:45:54.574Z,46.43
2018-03-30T14:48:23.061Z,46.12
2018-03-30T14:50:54.121Z,46.23
2018-03-30T14:53:23.337Z,46.78
2018-03-30T14:55:53.324Z,46.53
2018-03-30T14:58:39.426Z,47.11
2018-03-30T15:01:07.022Z,46.84
2018-03-30T15:03:35.481Z,46.90
2018-03-30T15:06:17.490Z,47.78
2018-03-30T15:08:48.367Z,47.69
2018-03-30T15:11:35.222Z,47.76
2018-03-30T15:14:08.351Z,49.04
2018-03-30T15:16:47.187Z,48.44
2018-03-30T15:19:26.522Z,48.80
2018-03-30T15:21:59.683Z,48.39
2018-03-30T15:27:35.484Z,48.86
2018-03-30T15:43:31.811Z,48.78
2018-03-30T15:46:03.205Z,48.64
2018-03-30T15:48:30.823Z,49.17
2018-03-30T15:51:17.989Z,49.19
2018-03-30T15:53:45.007Z,49.58
2018-03-30T15:56:14.162Z,49.54
2018-03-30T15:58:41.740Z,49.54
2018-03-30T16:01:09.362Z,50.28
2018-03-30T16:03:36.959Z,49.21
2018-03-30T16:06:04.572Z,49.58
2018-03-30T16:08:32.163Z,49.50
2018-03-30T16:11:04.388Z,49.45
2018-03-30T16:13:31.980Z,49.25
2018-03-30T16:15:59.620Z,49.20
2018-03-30T16:18:33.040Z,48.84
2018-03-30T16:21:00.943Z,49.51
2018-03-30T16:23:27.955Z,48.94
2018-03-30T16:25:55.041Z,48.91
2018-03-30T16:28:22.068Z,49.96
2018-03-30T16:30:49.078Z,49.37
2018-03-30T16:33:16.145Z,49.86
2018-03-30T16:35:43.150Z,50.15
2018-03-30T16:38:10.223Z,50.79
2018-03-30T16:40:37.248Z,50.37
2018-03-30T16:43:04.315Z,51.23
2018-03-30T16:45:31.335Z,51.02
2018-03-30T16:47:58.385Z,50.93
2018-03-30T16:50:25.394Z,51.41
2018-03-30T16:52:52.445Z,51.40
2018-03-30T16:55:19.498Z,51.76
2018-03-30T16:57:46.561Z,51.95
2018-03-30T17:00:13.591Z,52.43
2018-03-30T17:02:40.667Z,52.06
2018-03-30T17:05:07.694Z,52.20
2018-03-30T17:07:34.776Z,52.11
2018-03-30T17:10:01.816Z,52.94
2018-03-30T17:12:28.853Z,52.66
2018-03-30T17:14:56.085Z,52.80
2018-03-30T17:17:23.093Z,53.30
2018-03-30T17:19:50.151Z,52.35
2018-03-30T17:22:17.177Z,52.87
2018-03-30T17:24:44.243Z,52.71
2018-03-30T17:27:11.267Z,53.05
2018-03-30T17:29:38.316Z,52.92
2018-03-30T17:32:05.363Z,53.56
2018-03-30T17:34:32.430Z,53.54
2018-03-30T17:36:59.435Z,53.86
2018-03-30T17:39:26.500Z,54.57
2018-03-30T17:41:53.514Z,54.59
2018-03-30T17:44:20.684Z,54.79
2018-03-30T17:46:47.686Z,55.49
2018-03-30T17:49:14.831Z,56.96
2018-03-30T17:51:41.842Z,56.83
2018-03-30T17:54:08.882Z,58.30
2018-03-30T17:56:35.923Z,60.67
2018-03-30T17:59:02.993Z,62.61
2018-03-30T18:01:30.079Z,63.42
2018-03-30T18:03:57.108Z,64.65
2018-03-30T18:06:24.154Z,64.92
2018-03-30T18:08:51.224Z,64.76
2018-03-30T18:11:18.283Z,63.74
2018-03-30T18:13:45.314Z,63.97
2018-03-30T18:16:12.376Z,65.42
2018-03-30T18:18:39.412Z,64.56
2018-03-30T18:21:06.475Z,66.16
2018-03-30T18:23:33.482Z,67.79
2018-03-30T18:26:00.542Z,69.26
2018-03-30T18:28:27.561Z,71.49
2018-03-30T18:30:54.629Z,72.86
2018-03-30T18:33:21.650Z,72.66
2018-03-30T18:35:48.720Z,73.28
2018-03-30T18:38:15.731Z,74.25
2018-03-30T18:40:42.828Z,74.07
2018-03-30T18:43:09.877Z,74.25
2018-03-30T18:45:36.930Z,74.09
2018-03-30T18:48:03.946Z,74.45
2018-03-30T18:50:31.014Z,74.90
2018-03-30T18:52:58.034Z,74.88
2018-03-30T18:55:25.116Z,75.48
2018-03-30T18:57:52.187Z,77.46
2018-03-30T19:00:19.226Z,78.30
2018-03-30T19:02:46.275Z,78.19
2018-03-30T19:05:13.313Z,79.56
2018-03-30T19:07:40.402Z,79.89
2018-03-30T19:10:07.444Z,79.94
2018-03-30T19:12:34.547Z,79.76
2018-03-30T19:15:01.596Z,80.03
2018-03-30T19:17:28.644Z,80.28
2018-03-30T19:19:55.668Z,80.13
2018-03-30T19:22:22.745Z,80.95
2018-03-30T19:24:49.790Z,81.24
2018-03-30T19:27:16.847Z,81.44
2018-03-30T19:29:43.903Z,82.12
2018-03-30T19:32:10.958Z,81.63
2018-03-30T19:34:37.996Z,80.91
2018-03-30T19:37:05.135Z,82.09
2018-03-30T19:39:32.158Z,82.28
2018-03-30T19:41:59.219Z,83.76
2018-03-30T19:44:26.293Z,84.43
2018-03-30T19:46:53.373Z,84.83
2018-03-30T19:49:20.407Z,85.83
2018-03-30T19:51:47.436Z,85.70
2018-03-30T19:54:14.511Z,85.59
2018-03-30T19:56:41.522Z,84.92
2018-03-30T19:59:08.590Z,86.35
2018-03-30T20:01:35.629Z,86.40
2018-03-30T20:04:02.701Z,87.10
2018-03-30T20:06:29.793Z,87.28
2018-03-30T20:08:56.955Z,87.20
2018-03-30T20:11:24.073Z,87.18
2018-03-30T20:13:51.403Z,87.51
2018-03-30T20:16:18.471Z,87.79
2018-03-30T20:18:45.523Z,87.69
2018-03-30T20:21:12.553Z,87.58
2018-03-30T20:23:39.620Z,87.78
2018-03-30T20:26:06.655Z,87.72
2018-03-30T20:28:33.735Z,87.56
2018-03-30T20:31:00.781Z,88.00
2018-03-30T20:33:27.826Z,87.75
2018-03-30T20:35:55.028Z,87.52
2018-03-30T20:38:22.101Z,88.08
2018-03-30T20:40:49.143Z,87.93
2018-03-30T20:43:16.201Z,87.98
2018-03-30T20:45:43.254Z,88.81
2018-03-30T20:48:10.366Z,88.69
2018-03-30T20:50:37.539Z,89.51
2018-03-30T20:53:04.578Z,88.45
2018-03-30T20:55:31.627Z,89.22
2018-03-30T20:57:58.643Z,88.69
2018-03-30T21:00:25.701Z,88.85
2018-03-30T21:02:52.731Z,90.64
2018-03-30T21:05:19.805Z,91.87
2018-03-30T21:07:46.828Z,93.03
2018-03-30T21:10:13.874Z,93.93
2018-03-30T21:12:40.903Z,94.66
2018-03-30T21:15:07.968Z,94.93
2018-03-30T21:17:34.974Z,95.07
2018-03-30T21:20:02.039Z,94.90
2018-03-30T21:22:29.042Z,94.70
2018-03-30T21:24:56.106Z,94.57
2018-03-30T21:27:23.135Z,94.72
2018-03-30T21:29:50.190Z,94.95
2018-03-30T21:32:17.254Z,95.35
2018-03-30T21:34:44.323Z,95.79
2018-03-30T21:37:11.360Z,95.87
2018-03-30T21:39:38.422Z,95.88
2018-03-30T21:42:05.450Z,95.77
2018-03-30T21:44:32.459Z,95.95
2018-03-30T21:46:59.527Z,95.91
2018-03-30T21:49:26.555Z,95.69
2018-03-30T21:51:53.620Z,95.72
2018-03-30T21:54:20.652Z,95.80
2018-03-30T21:56:47.715Z,95.71
2018-03-30T21:59:14.734Z,95.85
2018-03-30T22:01:41.797Z,96.02
2018-03-30T22:04:08.806Z,96.12
2018-03-30T22:06:35.927Z,96.34
2018-03-30T22:09:03.013Z,96.22
2018-03-30T22:11:30.327Z,96.23
2018-03-30T22:13:57.339Z,96.45
2018-03-30T22:16:24.416Z,96.52
2018-03-30T22:18:51.442Z,96.57
2018-03-30T22:21:18.502Z,96.58
2018-03-30T22:23:45.510Z,96.71
2018-03-30T22:26:12.567Z,96.75
2018-03-30T22:28:39.575Z,96.43
2018-03-30T22:31:06.637Z,96.41
2018-03-30T22:33:33.667Z,96.58
2018-03-30T22:36:00.717Z,96.83
2018-03-30T22:38:27.772Z,96.97
2018-03-30T22:40:54.799Z,97.00
2018-03-30T22:43:21.850Z,96.74
2018-03-30T22:45:48.869Z,96.52
2018-03-30T22:48:15.927Z,96.65
2018-03-30T22:50:42.934Z,96.80
2018-03-30T22:53:10.066Z,97.16
2018-03-30T22:55:37.127Z,97.18
2018-03-30T22:58:04.232Z,96.88
2018-03-30T23:00:31.314Z,96.91
2018-03-30T23:02:58.557Z,96.93
2018-03-30T23:05:25.733Z,96.81
2018-03-30T23:07:52.792Z,96.67
2018-03-30T23:10:19.802Z,96.85
2018-03-30T23:12:46.858Z,96.98
2018-03-30T23:15:13.875Z,96.95
2018-03-30T23:17:40.935Z,97.22
2018-03-30T23:20:07.938Z,97.26
2018-03-30T23:22:34.995Z,97.10
2018-03-30T23:25:02.019Z,97.35
2018-03-30T23:27:29.338Z,97.60
2018-03-30T23:29:56.386Z,97.88
2018-03-30T23:32:23.469Z,97.70
2018-03-30T23:34:50.485Z,97.66
2018-03-30T23:37:17.527Z,97.59
2018-03-30T23:39:44.724Z,97.22
2018-03-30T23:42:11.762Z,96.57
2018-03-30T23:44:38.811Z,95.94
2018-03-30T23:47:05.837Z,95.68
2018-03-30T23:49:32.876Z,95.82
2018-03-30T23:51:59.895Z,96.34
2018-03-30T23:54:26.935Z,96.63
2018-03-30T23:56:53.948Z,96.67
2018-03-30T23:59:21.131Z,96.26
